Time;durP1;ratioP1;P1;durP2;ratioP2;P2;SDS_P1;SDS_P2;PMS_P1;PMS_P2;Temp;Humidity;BMP_temperature;BMP_pressure;BME280_temperature;BME280_humidity;BME280_pressure;Samples;Min_cycle;Max_cycle;Signal;HPM_P1;HPM_P2
2022/10/25 00:00:42;;;;;;;5.82;1.83;;;;;;;14.90;76.52;101090.78;5051610;28;20112;-67
2022/10/25 00:03:10;;;;;;;7.63;2.00;;;;;;;14.89;76.10;101085.44;5051119;28;20377;-67
2022/10/25 00:05:36;;;;;;;5.03;2.05;;;;;;;14.91;76.51;101091.59;5051167;28;20044;-67
2022/10/25 00:08:01;;;;;;;7.22;1.80;;;;;;;14.93;76.33;101093.00;5040032;28;20026;-67
2022/10/25 00:10:27;;;;;;;7.20;2.28;;;;;;;14.94;76.28;101094.69;5039440;28;20025;-67
2022/10/25 00:12:53;;;;;;;8.63;2.20;;;;;;;14.86;76.52;101097.19;5052503;28;20112;-67
2022/10/25 00:15:18;;;;;;;6.28;2.00;;;;;;;14.89;76.71;101103.03;5061983;28;20361;-67
2022/10/25 00:17:43;;;;;;;6.45;2.13;;;;;;;14.90;76.98;101098.31;5057586;28;20465;-67
2022/10/25 00:20:11;;;;;;;4.28;1.85;;;;;;;14.89;77.00;101105.84;5032302;28;20040;-67
2022/10/25 00:22:36;;;;;;;12.20;2.13;;;;;;;14.89;76.85;101097.44;5035677;28;20067;-68
2022/10/25 00:25:04;;;;;;;6.60;2.03;;;;;;;14.88;76.76;101106.97;5051563;28;20102;-67
2022/10/25 00:27:29;;;;;;;8.50;1.85;;;;;;;14.90;76.70;101101.13;5049566;28;20049;-67
2022/10/25 00:29:54;;;;;;;9.02;2.30;;;;;;;14.89;76.58;101100.25;5049591;28;21571;-67
2022/10/25 00:32:19;;;;;;;12.25;2.40;;;;;;;14.86;76.88;101109.19;5056402;28;20116;-67
2022/10/25 00:34:45;;;;;;;6.50;1.77;;;;;;;14.90;76.15;101110.34;5051491;28;20036;-67
2022/10/25 00:37:10;;;;;;;10.60;1.95;;;;;;;14.94;76.62;101107.81;5036065;28;20065;-66
2022/10/25 00:39:36;;;;;;;11.00;2.60;;;;;;;14.84;76.92;101117.00;5046916;28;20475;-67
2022/10/25 00:42:01;;;;;;;13.00;2.45;;;;;;;14.90;76.90;101107.53;5051288;28;20025;-67
2022/10/25 00:44:35;;;;;;;10.90;2.30;;;;;;;14.94;77.01;101114.25;5033948;28;20124;-67
2022/10/25 00:47:19;;;;;;;8.23;2.00;;;;;;;15.00;76.68;101114.25;5060342;28;20106;-67
2022/10/25 00:49:48;;;;;;;11.98;2.33;;;;;;;14.95;76.78;101118.72;5056401;28;20040;-67
2022/10/25 00:52:14;;;;;;;7.70;2.08;;;;;;;14.97;76.70;101110.03;5051738;28;20031;-67
2022/10/25 00:54:44;;;;;;;10.02;2.00;;;;;;;15.01;76.71;101113.13;5051205;28;20029;-67
2022/10/25 00:57:17;;;;;;;8.82;2.28;;;;;;;14.94;76.77;101111.47;5052354;28;20035;-67
2022/10/25 00:59:45;;;;;;;8.02;1.83;;;;;;;14.97;76.62;101113.72;5039615;28;20037;-67
2022/10/25 01:02:11;;;;;;;10.73;2.00;;;;;;;14.95;76.77;101106.69;5061671;28;20032;-67
2022/10/25 01:04:36;;;;;;;7.80;1.90;;;;;;;14.95;76.62;101113.13;5057058;28;20060;-66
2022/10/25 01:07:02;;;;;;;10.60;2.08;;;;;;;14.94;76.47;101117.06;5030639;28;20025;-67
2022/10/25 01:09:30;;;;;;;9.68;1.70;;;;;;;14.92;76.61;101116.47;5032050;28;20392;-67
2022/10/25 01:11:56;;;;;;;9.13;1.90;;;;;;;14.91;76.33;101122.34;5050547;28;20025;-67
2022/10/25 01:14:22;;;;;;;9.82;2.30;;;;;;;14.93;76.41;101120.09;5050711;28;20037;-67
2022/10/25 01:17:12;;;;;;;6.88;2.00;;;;;;;14.94;76.27;101125.44;5054964;28;20021;-68
2022/10/25 01:20:08;;;;;;;7.00;1.92;;;;;;;14.88;76.62;101120.94;5031272;28;20037;-67
2022/10/25 01:22:39;;;;;;;8.70;2.38;;;;;;;14.87;76.42;101126.81;5048381;28;20039;-67
2022/10/25 01:25:16;;;;;;;8.15;1.85;;;;;;;14.90;76.54;101135.47;5050725;28;20040;-67
2022/10/25 01:28:03;;;;;;;11.82;2.13;;;;;;;14.90;76.59;101135.47;5039192;28;20473;-67
2022/10/25 01:30:59;;;;;;;5.30;1.60;;;;;;;14.92;76.61;101138.00;5038292;28;20061;-67
2022/10/25 01:33:38;;;;;;;9.48;1.83;;;;;;;14.92;76.41;101136.03;5040058;28;20087;-67
2022/10/25 01:36:27;;;;;;;8.82;1.52;;;;;;;14.92;76.53;101135.19;5030343;28;20075;-68
2022/10/25 01:39:00;;;;;;;8.80;1.92;;;;;;;14.92;76.64;101138.81;5054689;28;20119;-68
2022/10/25 01:41:40;;;;;;;9.20;2.40;;;;;;;14.90;76.57;101138.28;5071085;28;20112;-68
2022/10/25 01:44:24;;;;;;;9.07;2.42;;;;;;;14.91;76.43;101147.50;5035217;28;20077;-67
2022/10/25 01:47:17;;;;;;;8.82;1.90;;;;;;;14.92;76.60;101141.63;5031286;28;20065;-69
2022/10/25 01:49:48;;;;;;;9.23;2.22;;;;;;;14.91;76.37;101141.91;5048329;28;20489;-68
2022/10/25 01:52:18;;;;;;;9.52;2.10;;;;;;;14.86;76.46;101139.09;5053044;28;20036;-68
2022/10/25 01:54:43;;;;;;;12.20;2.42;;;;;;;14.84;76.32;101142.16;5071423;28;20039;-69
2022/10/25 01:57:24;;;;;;;11.13;2.30;;;;;;;14.82;76.55;101152.78;5070158;28;20762;-69
2022/10/25 02:00:11;;;;;;;8.73;1.90;;;;;;;14.82;76.49;101149.16;5071663;28;20396;-68
2022/10/25 02:03:14;;;;;;;10.65;2.50;;;;;;;14.80;76.54;101148.56;5043444;28;20041;-68
2022/10/25 02:05:42;;;;;;;;;;;;;;;14.89;75.79;101144.97;5031211;28;20037;-69
2022/10/25 02:08:13;;;;;;;6.72;2.05;;;;;;;14.71;76.70;101145.47;5050787;28;19972;-67
2022/10/25 02:10:52;;;;;;;10.27;1.73;;;;;;;14.69;76.82;101153.28;5050066;28;20043;-68
2022/10/25 02:13:36;;;;;;;9.15;2.05;;;;;;;14.70;76.84;101154.97;5035177;28;20026;-68
2022/10/25 02:16:07;;;;;;;10.27;2.00;;;;;;;14.63;77.23;101159.97;5031242;28;20044;-68
2022/10/25 02:18:36;;;;;;;7.82;1.85;;;;;;;14.67;77.24;101161.94;5030337;28;20017;-67
2022/10/25 02:21:04;;;;;;;10.77;2.45;;;;;;;14.69;77.02;101167.25;5032747;28;20035;-68
2022/10/25 02:23:33;;;;;;;10.07;2.10;;;;;;;14.66;77.08;101159.44;5031429;28;20033;-67
2022/10/25 02:26:00;;;;;;;8.93;1.95;;;;;;;14.66;77.13;101165.03;5029413;28;20025;-68
2022/10/25 02:28:27;;;;;;;7.05;1.90;;;;;;;14.68;76.99;101163.63;5031235;28;20598;-67
2022/10/25 02:30:58;;;;;;;7.28;1.75;;;;;;;14.69;77.18;101161.66;5036755;28;20021;-67
2022/10/25 02:33:24;;;;;;;8.60;2.10;;;;;;;14.68;77.06;101166.41;5048975;28;20048;-67
2022/10/25 02:36:11;;;;;;;7.13;1.88;;;;;;;14.69;76.98;101159.69;5051263;28;20020;-67
2022/10/25 02:38:37;;;;;;;9.50;2.22;;;;;;;14.63;76.76;101162.78;5070294;28;20029;-68
2022/10/25 02:41:04;;;;;;;11.82;2.58;;;;;;;14.54;77.16;101169.97;5059952;28;20029;-67
2022/10/25 02:43:30;;;;;;;8.88;2.17;;;;;;;14.57;77.15;101175.03;5037638;28;20113;-67
2022/10/25 02:45:55;;;;;;;9.23;2.10;;;;;;;14.60;76.93;101169.72;5030009;28;20112;-68
2022/10/25 02:48:20;;;;;;;9.75;2.40;;;;;;;14.63;76.77;101176.75;5053018;28;20028;-67
2022/10/25 02:50:45;;;;;;;11.90;2.10;;;;;;;14.61;76.86;101173.38;5051918;28;20566;-67
2022/10/25 02:53:14;;;;;;;6.75;2.05;;;;;;;14.62;77.01;101181.50;5071827;28;20035;-67
2022/10/25 02:55:39;;;;;;;11.52;2.13;;;;;;;14.58;76.88;101173.91;5074161;28;20469;-67
2022/10/25 02:58:05;;;;;;;6.72;1.75;;;;;;;14.62;76.85;101175.03;5074647;28;20050;-67
2022/10/25 03:00:30;;;;;;;8.57;1.73;;;;;;;14.64;76.77;101176.44;5065108;28;20028;-68
2022/10/25 03:02:55;;;;;;;5.65;1.73;;;;;;;14.58;76.68;101171.09;5039090;28;20048;-67
2022/10/25 03:05:20;;;;;;;5.28;1.90;;;;;;;14.58;76.74;101180.34;5034125;28;20110;-67
2022/10/25 03:07:46;;;;;;;6.70;1.88;;;;;;;14.63;76.67;101168.34;5059955;28;20028;-67
2022/10/25 03:10:11;;;;;;;5.78;2.00;;;;;;;14.63;76.62;101179.53;5060377;28;20098;-68
2022/10/25 03:12:36;;;;;;;5.28;1.58;;;;;;;14.66;76.76;101181.78;5053986;28;20480;-67
2022/10/25 03:15:05;;;;;;;9.68;1.88;;;;;;;14.62;76.63;101197.38;5037305;28;20029;-67
2022/10/25 03:17:30;;;;;;;6.72;1.90;;;;;;;14.64;76.44;101187.63;5034156;28;20116;-67
2022/10/25 03:19:56;;;;;;;8.20;1.90;;;;;;;14.57;76.65;101189.81;5034319;28;20160;-67
2022/10/25 03:22:21;;;;;;;8.27;1.88;;;;;;;14.62;76.71;101197.38;5035361;28;20515;-67
2022/10/25 03:24:55;;;;;;;6.55;2.00;;;;;;;14.57;76.58;101198.19;5073696;28;20043;-67
2022/10/25 03:27:20;;;;;;;9.38;2.35;;;;;;;14.53;76.34;101204.59;5073913;28;20056;-67
2022/10/25 03:29:46;;;;;;;12.30;2.25;;;;;;;14.52;76.53;101208.53;5055829;28;20063;-68
2022/10/25 03:32:11;;;;;;;6.68;1.50;;;;;;;14.55;75.89;101210.78;5049363;28;20099;-67
2022/10/25 03:34:36;;;;;;;7.25;2.22;;;;;;;14.56;75.83;101218.03;5034083;28;20037;-67
2022/10/25 03:37:01;;;;;;;5.78;1.63;;;;;;;14.52;76.42;101219.69;5033333;28;20066;-67
2022/10/25 03:39:27;;;;;;;8.45;2.28;;;;;;;14.48;76.21;101220.19;5073231;28;20032;-67
2022/10/25 03:41:52;;;;;;;5.68;1.90;;;;;;;14.50;76.26;101228.31;5066262;28;20083;-67
2022/10/25 03:44:17;;;;;;;7.45;2.05;;;;;;;14.48;76.26;101236.97;5033240;28;20041;-66
2022/10/25 03:46:46;;;;;;;11.82;2.25;;;;;;;14.42;76.53;101232.47;5033057;28;20025;-67
2022/10/25 03:49:11;;;;;;;8.02;1.88;;;;;;;14.46;76.48;101228.03;5032626;28;20029;-67
2022/10/25 03:51:37;;;;;;;5.95;1.70;;;;;;;14.46;76.25;101236.41;5044320;28;20032;-67
2022/10/25 03:54:02;;;;;;;6.70;1.67;;;;;;;14.46;76.51;101242.00;5072398;28;20526;-66
2022/10/25 03:56:27;;;;;;;7.97;1.80;;;;;;;14.42;76.31;101246.44;5072163;28;20123;-67
2022/10/25 03:59:02;;;;;;;7.18;1.95;;;;;;;14.48;76.39;101239.75;5072749;28;20375;-66
2022/10/25 04:01:30;;;;;;;9.73;2.20;;;;;;;14.42;76.67;101243.63;5050995;28;20488;-66
2022/10/25 04:03:58;;;;;;;4.38;1.63;;;;;;;14.45;76.42;101248.66;5032779;28;20057;-67
2022/10/25 04:06:24;;;;;;;5.93;1.83;;;;;;;14.44;76.36;101254.53;5032977;28;20033;-67
2022/10/25 04:08:49;;;;;;;6.18;1.80;;;;;;;14.46;76.28;101246.72;5052698;28;20469;-67
2022/10/25 04:11:17;;;;;;;7.38;1.83;;;;;;;14.42;76.60;101252.00;5032593;28;20026;-67
2022/10/25 04:13:44;;;;;;;8.20;2.30;;;;;;;14.35;76.53;101257.00;5043703;28;20543;-67
2022/10/25 04:16:10;;;;;;;6.93;1.88;;;;;;;14.36;76.63;101255.88;5051239;28;20036;-67
2022/10/25 04:18:47;;;;;;;5.53;1.77;;;;;;;14.37;76.61;101243.59;5051622;28;20059;-67
2022/10/25 04:21:12;;;;;;;6.40;1.60;;;;;;;14.37;76.77;101249.16;5033649;28;20034;-69
2022/10/25 04:23:37;;;;;;;9.73;2.45;;;;;;;14.39;76.44;101248.91;5071782;28;20036;-67
2022/10/25 04:26:02;;;;;;;7.63;2.50;;;;;;;14.36;76.56;101250.28;5069619;28;20115;-67
2022/10/25 04:28:28;;;;;;;7.35;2.20;;;;;;;14.38;76.27;101255.59;5072010;28;20028;-68
2022/10/25 04:30:53;;;;;;;8.35;2.33;;;;;;;14.38;76.33;101262.03;5063662;28;20031;-68
2022/10/25 04:33:18;;;;;;;7.50;2.10;;;;;;;14.37;76.50;101256.72;5038804;28;20048;-68
2022/10/25 04:35:51;;;;;;;6.85;2.00;;;;;;;14.36;76.70;101264.25;5052438;28;20078;-67
2022/10/25 04:38:19;;;;;;;5.93;2.00;;;;;;;14.35;76.33;101262.56;5051426;28;20029;-67
2022/10/25 04:40:55;;;;;;;9.90;2.30;;;;;;;14.37;76.52;101262.28;5045643;28;20067;-67
2022/10/25 04:43:21;;;;;;;8.43;2.65;;;;;;;14.24;76.68;101258.03;5052420;28;20049;-68
2022/10/25 04:45:46;;;;;;;9.02;2.70;;;;;;;14.27;76.57;101257.50;5031231;28;20610;-67
2022/10/25 04:48:11;;;;;;;7.78;2.28;;;;;;;14.25;76.81;101256.91;5032734;28;20068;-67
2022/10/25 04:50:37;;;;;;;5.57;2.20;;;;;;;14.27;76.73;101257.50;5042630;28;20049;-67
2022/10/25 04:53:03;;;;;;;8.52;2.30;;;;;;;14.24;76.88;101269.19;5051538;28;20428;-67
2022/10/25 04:55:28;;;;;;;9.10;2.63;;;;;;;14.23;76.54;101267.50;5051917;28;20033;-68
2022/10/25 04:57:54;;;;;;;9.30;2.38;;;;;;;14.27;76.35;101263.06;5044750;28;20017;-67
2022/10/25 05:00:20;;;;;;;6.60;2.40;;;;;;;14.26;76.53;101261.38;5033360;28;20147;-67
2022/10/25 05:02:45;;;;;;;10.30;2.92;;;;;;;14.26;76.73;101269.75;5041615;28;20079;-67
2022/10/25 05:05:10;;;;;;;6.47;2.42;;;;;;;14.26;76.36;101269.75;5034705;28;20033;-67
2022/10/25 05:07:35;;;;;;;7.78;2.40;;;;;;;14.21;76.63;101281.72;5038447;28;20485;-67
2022/10/25 05:10:01;;;;;;;10.40;2.72;;;;;;;14.21;76.51;101275.31;5045038;28;20028;-67
2022/10/25 05:12:26;;;;;;;9.15;2.50;;;;;;;14.23;76.43;101282.31;5046388;28;20037;-67
2022/10/25 05:14:54;;;;;;;10.70;2.72;;;;;;;14.17;76.74;101279.75;5057054;28;20032;-67
2022/10/25 05:17:19;;;;;;;8.43;2.55;;;;;;;14.20;76.59;101282.00;5039679;28;20044;-68
2022/10/25 05:19:44;;;;;;;10.57;2.70;;;;;;;14.13;76.73;101281.38;5040284;28;20501;-67
2022/10/25 05:22:10;;;;;;;7.35;2.42;;;;;;;14.17;76.83;101288.09;5047148;28;20021;-69
2022/10/25 05:24:35;;;;;;;7.45;2.60;;;;;;;14.19;76.93;101292.34;5048228;28;20401;-69
2022/10/25 05:27:06;;;;;;;5.97;2.15;;;;;;;14.16;76.80;101294.81;5045712;28;20119;-67
2022/10/25 05:29:31;;;;;;;8.50;2.22;;;;;;;14.16;76.91;101303.19;5060088;28;20024;-66
2022/10/25 05:32:06;;;;;;;8.20;2.20;;;;;;;14.19;76.44;101302.66;5047002;28;20032;-66
2022/10/25 05:34:32;;;;;;;10.43;2.33;;;;;;;14.12;76.72;101296.44;5029906;28;20029;-68
2022/10/25 05:36:57;;;;;;;9.77;2.92;;;;;;;14.09;76.75;101303.41;5037696;28;20029;-68
2022/10/25 05:39:23;;;;;;;9.65;2.58;;;;;;;14.10;76.74;101302.28;5029260;28;20108;-67
2022/10/25 05:41:48;;;;;;;5.75;2.30;;;;;;;14.09;76.53;101308.97;5046240;28;20025;-68
2022/10/25 05:44:15;;;;;;;5.82;2.30;;;;;;;14.04;76.78;101308.94;5034490;28;20071;-69
2022/10/25 05:46:41;;;;;;;8.10;2.50;;;;;;;14.04;76.79;101319.28;5036763;28;20053;-67
2022/10/25 05:49:07;;;;;;;6.88;2.30;;;;;;;14.06;76.67;101315.09;5041278;28;20044;-67
2022/10/25 05:51:32;;;;;;;6.70;2.50;;;;;;;14.07;76.79;101314.00;5047789;28;20032;-70
2022/10/25 05:54:00;;;;;;;12.13;2.75;;;;;;;14.02;76.70;101321.47;5050197;28;20056;-69
2022/10/25 05:56:27;;;;;;;6.68;2.85;;;;;;;14.03;76.91;101328.72;5046904;28;20040;-70
2022/10/25 05:58:55;;;;;;;6.68;2.70;;;;;;;14.02;77.07;101327.06;5046199;28;20029;-69
2022/10/25 06:01:21;;;;;;;6.57;2.50;;;;;;;14.03;76.79;101332.38;5049020;28;20029;-67
2022/10/25 06:03:48;;;;;;;7.25;2.83;;;;;;;14.02;76.78;101336.25;5034281;28;20033;-67
2022/10/25 06:06:13;;;;;;;5.75;2.30;;;;;;;14.03;76.48;101340.75;5030910;28;20030;-67
2022/10/25 06:08:39;;;;;;;6.97;3.42;;;;;;;14.03;76.86;101337.09;5049173;28;20035;-67
2022/10/25 06:11:17;;;;;;;8.48;3.05;;;;;;;14.04;76.68;101331.28;5031468;28;20021;-67
2022/10/25 06:13:43;;;;;;;8.52;3.08;;;;;;;14.03;77.09;101340.75;5048575;28;20365;-62
2022/10/25 06:16:12;;;;;;;8.15;3.60;;;;;;;14.00;77.04;101347.69;5047216;28;20083;-67
2022/10/25 06:18:38;;;;;;;12.25;3.65;;;;;;;13.96;77.32;101343.75;5048839;28;20528;-68
2022/10/25 06:21:06;;;;;;;8.30;4.35;;;;;;;13.96;77.09;101351.28;5050771;28;20115;-67
2022/10/25 06:23:31;;;;;;;10.75;3.90;;;;;;;13.94;77.33;101343.16;5054062;28;20099;-68
2022/10/25 06:26:05;;;;;;;6.90;3.78;;;;;;;14.02;77.26;101355.81;5051826;28;20025;-69
2022/10/25 06:28:31;;;;;;;11.65;4.40;;;;;;;13.99;77.11;101359.97;5054187;28;20025;-67
2022/10/25 06:31:04;;;;;;;11.50;4.38;;;;;;;13.96;77.40;101357.72;5052605;28;20035;-68
2022/10/25 06:33:30;;;;;;;10.32;4.38;;;;;;;14.02;77.26;101361.38;5053629;28;20049;-67
2022/10/25 06:35:57;;;;;;;8.55;3.63;;;;;;;14.03;77.07;101367.81;5054013;28;20035;-68
2022/10/25 06:38:23;;;;;;;12.45;4.53;;;;;;;13.98;77.41;101372.22;5069444;28;20060;-68
2022/10/25 06:40:48;;;;;;;14.43;4.70;;;;;;;13.99;77.40;101375.88;5052906;28;20096;-68
2022/10/25 06:43:14;;;;;;;11.23;5.13;;;;;;;13.98;77.19;101369.44;5052597;28;20528;-67
2022/10/25 06:45:40;;;;;;;7.00;4.18;;;;;;;13.97;77.58;101369.72;5052735;28;20040;-68
2022/10/25 06:48:05;;;;;;;8.93;4.32;;;;;;;13.99;77.62;101376.72;5052916;28;20040;-68
2022/10/25 06:50:30;;;;;;;9.45;4.28;;;;;;;13.99;77.75;101378.69;5064788;28;20048;-67
2022/10/25 06:52:56;;;;;;;13.60;5.15;;;;;;;13.98;77.48;101377.81;5071926;28;20046;-68
2022/10/25 06:55:22;;;;;;;11.38;4.80;;;;;;;13.99;77.21;101375.88;5064892;28;20024;-68
2022/10/25 06:57:50;;;;;;;13.13;5.25;;;;;;;13.94;77.74;101386.97;5044351;28;20071;-69
2022/10/25 07:00:16;;;;;;;13.55;5.00;;;;;;;13.95;77.79;101386.72;5032213;28;20033;-69
2022/10/25 07:02:41;;;;;;;15.60;5.53;;;;;;;13.99;77.49;101387.06;5032296;28;20033;-68
2022/10/25 07:05:07;;;;;;;11.70;5.15;;;;;;;14.02;77.33;101391.25;5056616;28;20079;-68
2022/10/25 07:07:32;;;;;;;11.05;4.80;;;;;;;14.03;77.30;101393.78;5072557;28;20086;-68
2022/10/25 07:09:57;;;;;;;12.75;5.40;;;;;;;14.05;77.23;101404.69;5072507;28;20024;-68
2022/10/25 07:12:22;;;;;;;8.90;5.35;;;;;;;14.04;77.08;101405.78;5071555;28;20506;-68
2022/10/25 07:14:48;;;;;;;13.80;5.60;;;;;;;14.05;77.14;101404.69;5049787;28;20040;-68
2022/10/25 07:17:13;;;;;;;11.45;5.32;;;;;;;14.09;77.23;101405.84;5047229;28;20030;-68
2022/10/25 07:19:38;;;;;;;15.05;4.97;;;;;;;14.12;77.15;101408.13;5052216;28;20024;-68
2022/10/25 07:22:03;;;;;;;12.60;4.75;;;;;;;14.13;77.55;101410.63;5071133;28;20068;-68
2022/10/25 07:24:30;;;;;;;9.73;5.05;;;;;;;14.08;77.53;101416.16;5071753;28;20024;-68
2022/10/25 07:26:55;;;;;;;12.45;5.47;;;;;;;14.13;77.66;101416.22;5056203;28;20415;-68
2022/10/25 07:29:20;;;;;;;9.55;4.90;;;;;;;14.15;77.50;101429.94;5042197;28;20029;-68
2022/10/25 07:31:48;;;;;;;12.77;5.40;;;;;;;14.16;77.73;101428.81;5049721;28;20148;-67
2022/10/25 07:34:14;;;;;;;12.27;5.57;;;;;;;14.16;77.51;101428.81;5055759;28;20105;-68
2022/10/25 07:36:40;;;;;;;12.00;5.35;;;;;;;14.18;77.75;101437.75;5051112;28;20416;-67
2022/10/25 07:39:06;;;;;;;12.48;5.15;;;;;;;14.19;77.46;101434.72;5045392;28;20036;-67
2022/10/25 07:41:31;;;;;;;7.05;4.80;;;;;;;14.22;77.29;101436.13;5052879;28;20040;-67
2022/10/25 07:43:57;;;;;;;11.77;5.18;;;;;;;14.21;77.82;101435.28;5054004;28;20086;-67
2022/10/25 07:46:23;;;;;;;11.98;5.50;;;;;;;14.21;77.59;101449.25;5060707;28;20049;-67
2022/10/25 07:48:48;;;;;;;11.75;5.55;;;;;;;14.23;77.35;101443.41;5038027;28;20102;-67
2022/10/25 07:51:15;;;;;;;14.30;5.80;;;;;;;14.19;77.64;101440.31;5037912;28;20068;-67
2022/10/25 07:53:41;;;;;;;13.10;5.72;;;;;;;14.20;77.41;101443.94;5036375;28;20388;-67
2022/10/25 07:56:12;;;;;;;12.40;5.80;;;;;;;14.23;77.74;101447.03;5035521;28;20078;-70
2022/10/25 07:58:37;;;;;;;9.45;5.28;;;;;;;14.16;77.86;101448.34;5037053;28;20111;-69
2022/10/25 08:01:05;;;;;;;14.05;5.45;;;;;;;14.18;78.06;101446.13;5038365;28;20037;-69
2022/10/25 08:03:36;;;;;;;15.65;5.88;;;;;;;14.17;78.09;101448.09;5050079;28;20452;-69
2022/10/25 08:06:02;;;;;;;12.18;5.55;;;;;;;14.17;78.18;101461.19;5056109;28;20115;-70
2022/10/25 08:08:28;;;;;;;10.73;5.22;;;;;;;14.18;78.01;101466.50;5031753;28;20029;-67
2022/10/25 08:10:55;;;;;;;13.50;5.72;;;;;;;14.19;78.25;101459.84;5038942;28;20491;-68
2022/10/25 08:13:21;;;;;;;13.63;5.35;;;;;;;14.24;77.68;101462.69;5041104;28;20037;-66
2022/10/25 08:15:54;;;;;;;10.02;5.63;;;;;;;14.24;77.79;101465.47;5039991;28;20511;-70
2022/10/25 08:18:20;;;;;;;11.93;5.85;;;;;;;14.27;78.28;101461.31;5042608;28;20041;-69
2022/10/25 08:20:45;;;;;;;12.68;5.75;;;;;;;14.27;77.79;101463.28;5068534;28;20064;-69
2022/10/25 08:23:11;;;;;;;14.90;5.40;;;;;;;14.28;77.92;101470.53;5032792;28;20103;-68
2022/10/25 08:25:36;;;;;;;11.90;5.60;;;;;;;14.32;77.82;101468.91;5031641;28;20124;-68
2022/10/25 08:28:02;;;;;;;9.75;5.15;;;;;;;14.36;77.91;101464.47;5043547;28;20029;-72
2022/10/25 08:30:28;;;;;;;12.70;5.60;;;;;;;14.36;78.04;101465.31;5038450;28;20468;-65
2022/10/25 08:32:53;;;;;;;9.65;5.13;;;;;;;14.41;77.86;101470.09;5050179;28;20496;-70
2022/10/25 08:35:18;;;;;;;13.57;5.38;;;;;;;14.40;77.75;101468.44;5051651;28;20041;-68
2022/10/25 08:37:44;;;;;;;12.88;5.40;;;;;;;14.44;77.81;101476.00;5040945;28;20033;-68
2022/10/25 08:40:17;;;;;;;15.00;5.55;;;;;;;14.46;78.11;101473.81;5030999;28;20034;-69
2022/10/25 08:43:04;;;;;;;11.30;5.10;;;;;;;14.49;77.66;101473.28;5057405;28;20503;-68
2022/10/25 08:45:37;;;;;;;12.93;5.85;;;;;;;14.49;77.49;101478.03;5046104;28;20033;-70
2022/10/25 08:48:04;;;;;;;12.98;5.10;;;;;;;14.51;77.60;101477.78;5046232;28;20029;-69
2022/10/25 08:50:39;;;;;;;12.23;5.05;;;;;;;14.59;77.92;101477.31;5036995;28;20037;-70
2022/10/25 08:53:12;;;;;;;12.40;4.80;;;;;;;14.61;77.48;101481.50;5029013;28;20025;-68
2022/10/25 08:55:41;;;;;;;11.93;4.38;;;;;;;14.65;76.97;101485.47;5043449;28;20388;-69
2022/10/25 08:58:22;;;;;;;9.82;4.57;;;;;;;14.67;77.30;101474.03;5064918;28;20480;-69
2022/10/25 09:00:50;;;;;;;8.77;4.40;;;;;;;14.69;76.81;101486.59;5067105;28;20484;-69
2022/10/25 09:03:24;;;;;;;10.13;4.25;;;;;;;14.73;77.13;101486.94;5064688;28;20445;-69
2022/10/25 09:06:11;;;;;;;14.07;4.70;;;;;;;14.80;77.18;101484.75;5040460;28;20040;-63
2022/10/25 09:08:51;;;;;;;8.63;4.18;;;;;;;14.80;76.86;101492.31;5037198;28;20033;-68
2022/10/25 09:11:46;;;;;;;10.55;4.85;;;;;;;14.83;76.68;101483.41;5048819;28;20068;-69
2022/10/25 09:14:24;;;;;;;11.18;4.75;;;;;;;14.85;77.04;101498.78;5037794;28;20055;-65
2022/10/25 09:16:52;;;;;;;9.05;4.55;;;;;;;14.91;77.32;101506.09;5057809;28;20140;-70
2022/10/25 09:19:24;;;;;;;8.52;4.40;;;;;;;14.88;77.08;101506.63;5051220;28;20056;-70
2022/10/25 09:21:56;;;;;;;9.80;4.75;;;;;;;14.92;76.89;101509.75;5050638;28;20029;-63
2022/10/25 09:24:32;;;;;;;8.05;4.70;;;;;;;14.93;76.92;101514.22;5045646;28;20029;-68
2022/10/25 09:27:16;;;;;;;12.40;4.68;;;;;;;14.95;76.96;101514.81;5049994;28;20043;-69
2022/10/25 09:29:54;;;;;;;13.65;4.25;;;;;;;14.98;76.99;101511.47;5057045;28;20069;-62
2022/10/25 09:32:27;;;;;;;7.20;3.50;;;;;;;15.04;76.30;101513.19;5047507;28;20068;-62
2022/10/25 09:34:54;;;;;;;12.07;4.03;;;;;;;15.12;76.95;101518.28;5030944;28;20065;-64
2022/10/25 09:37:27;;;;;;;7.35;3.60;;;;;;;15.20;76.28;101514.16;5043411;28;20544;-64
2022/10/25 09:39:55;;;;;;;11.07;3.92;;;;;;;15.20;75.97;101519.75;5069909;28;20043;-64
2022/10/25 09:42:28;;;;;;;9.25;3.63;;;;;;;15.17;75.79;101528.69;5054697;28;20086;-64
2022/10/25 09:44:58;;;;;;;14.52;4.00;;;;;;;15.13;75.62;101522.78;5039476;28;20037;-64
2022/10/25 09:47:42;;;;;;;9.52;3.42;;;;;;;15.10;75.72;101517.72;5035590;28;20028;-63
2022/10/25 09:50:45;;;;;;;11.13;3.50;;;;;;;15.14;76.02;101523.63;5049509;28;20029;-63
2022/10/25 09:53:11;;;;;;;;;;;;;;;15.20;76.06;101520.59;5042290;28;20419;-63
2022/10/25 09:55:56;;;;;;;11.18;3.45;;;;;;;15.14;75.87;101526.44;5048074;28;19913;-65
2022/10/25 09:58:23;;;;;;;13.65;3.80;;;;;;;15.12;76.21;101525.84;5046267;28;20124;-64
2022/10/25 10:00:50;;;;;;;10.77;3.95;;;;;;;15.14;76.39;101532.03;5043279;28;20029;-64
2022/10/25 10:03:16;;;;;;;9.88;4.20;;;;;;;15.12;75.84;101534.22;5049013;28;20029;-64
2022/10/25 10:05:55;;;;;;;8.82;3.20;;;;;;;15.17;76.02;101534.28;5041499;28;20030;-64
2022/10/25 10:08:21;;;;;;;8.55;3.08;;;;;;;15.16;75.39;101538.16;5049853;28;20042;-63
2022/10/25 10:10:49;;;;;;;7.35;2.67;;;;;;;15.13;75.29;101527.50;5032514;28;20075;-64
2022/10/25 10:13:17;;;;;;;11.93;3.22;;;;;;;15.11;74.99;101538.13;5043719;28;20032;-63
2022/10/25 10:15:51;;;;;;;9.75;3.20;;;;;;;15.08;75.16;101538.66;5034798;28;20293;-64
2022/10/25 10:18:31;;;;;;;7.82;2.50;;;;;;;15.12;75.40;101537.03;5035567;28;20049;-62
2022/10/25 10:21:08;;;;;;;11.65;3.15;;;;;;;15.11;75.29;101538.97;5042388;28;20044;-63
2022/10/25 10:23:42;;;;;;;13.23;3.53;;;;;;;15.08;75.39;101542.31;5032163;28;20026;-64
2022/10/25 10:26:17;;;;;;;11.65;3.42;;;;;;;15.09;75.31;101541.22;5035147;28;20032;-65
2022/10/25 10:28:50;;;;;;;12.68;3.20;;;;;;;15.08;75.59;101549.84;5049815;28;20029;-65
2022/10/25 10:31:17;;;;;;;8.82;3.00;;;;;;;15.07;75.72;101546.22;5055684;28;20468;-62
2022/10/25 10:33:48;;;;;;;11.00;3.10;;;;;;;15.09;75.60;101554.31;5057386;28;20555;-62
2022/10/25 10:36:32;;;;;;;8.43;3.17;;;;;;;15.12;75.63;101548.22;5029240;28;20033;-62
2022/10/25 10:39:21;;;;;;;12.70;3.50;;;;;;;15.09;75.71;101546.81;5028132;28;20555;-63
2022/10/25 10:42:17;;;;;;;10.05;2.97;;;;;;;15.08;75.49;101561.03;5035757;28;20033;-69
2022/10/25 10:45:00;;;;;;;12.57;3.00;;;;;;;15.10;75.72;101561.63;5044216;28;20116;-65
2022/10/25 10:47:32;;;;;;;8.80;2.80;;;;;;;15.11;75.69;101561.34;5040025;28;20068;-65
2022/10/25 10:49:59;;;;;;;8.23;3.08;;;;;;;15.12;75.29;101557.44;5029914;28;20368;-61
2022/10/25 10:53:16;;;;;;;10.20;3.17;;;;;;;15.18;75.47;101559.19;5031601;28;20393;-71
2022/10/25 10:55:44;;;;;;;10.13;2.55;;;;;;;15.23;75.43;101563.97;5045840;28;20045;-68
2022/10/25 10:58:21;;;;;;;9.35;2.95;;;;;;;15.28;75.08;101552.81;5046528;28;20152;-70
2022/10/25 11:00:59;;;;;;;8.98;2.17;;;;;;;15.36;75.02;101548.69;5047222;28;20037;-73
2022/10/25 11:03:40;;;;;;;11.77;3.10;;;;;;;15.39;75.04;101554.56;5040888;28;20025;-71
2022/10/25 11:06:09;;;;;;;7.75;2.42;;;;;;;15.42;74.38;101551.25;5046355;28;20122;-69
2022/10/25 11:08:34;;;;;;;9.20;2.30;;;;;;;15.44;74.52;101550.97;5063396;28;20028;-69
2022/10/25 11:11:21;;;;;;;9.50;2.50;;;;;;;15.46;74.96;101560.78;5050466;28;20473;-71
2022/10/25 11:13:57;;;;;;;7.43;2.72;;;;;;;15.50;74.77;101560.25;5050437;28;20067;-70
2022/10/25 11:16:47;;;;;;;8.38;2.95;;;;;;;15.53;74.50;101557.78;5047020;28;20033;-72
2022/10/25 11:19:46;;;;;;;10.77;3.10;;;;;;;15.51;74.55;101557.19;5035295;28;20046;-67
2022/10/25 11:22:11;;;;;;;10.13;3.30;;;;;;;15.58;74.32;101552.19;5046204;28;20152;-66
2022/10/25 11:24:58;;;;;;;9.48;3.00;;;;;;;15.64;74.30;101555.84;5037918;28;20112;-67
2022/10/25 11:28:01;;;;;;;6.47;2.70;;;;;;;15.68;74.67;101546.72;5049594;28;20601;-67
2022/10/25 11:30:35;;;;;;;11.82;3.38;;;;;;;15.70;74.26;101561.25;5032795;28;20052;-67
2022/10/25 11:33:31;;;;;;;9.43;3.20;;;;;;;15.74;73.88;101558.78;5040211;28;20105;-66
2022/10/25 11:36:05;;;;;;;7.85;3.17;;;;;;;15.73;73.52;101564.66;5047627;28;20079;-63